createdAt,value
2019-03-12T00:03:36.447Z,36.10
2019-03-12T00:08:27.812Z,35.80
2019-03-12T00:13:19.192Z,36.70
2019-03-12T00:18:10.854Z,37.80
2019-03-12T00:23:02.066Z,37.40
2019-03-12T00:27:53.499Z,37.90
2019-03-12T00:32:44.862Z,38.50
2019-03-12T00:37:36.227Z,37.70
2019-03-12T00:42:27.688Z,38.10
2019-03-12T00:47:19.025Z,37.80
2019-03-12T00:52:10.482Z,37.60
2019-03-12T00:57:01.810Z,38.80
2019-03-12T01:01:55.537Z,38.60
2019-03-12T01:06:46.967Z,37.50
2019-03-12T01:11:38.287Z,39.10
2019-03-12T01:16:31.886Z,37.40
2019-03-12T01:21:23.320Z,37.50
2019-03-12T01:26:14.780Z,37.60
2019-03-12T01:31:06.145Z,39.40
2019-03-12T01:35:59.691Z,39.60
2019-03-12T01:40:51.181Z,41.60
2019-03-12T01:45:44.790Z,43.00
2019-03-12T01:50:36.223Z,42.30
2019-03-12T01:55:27.612Z,46.00
2019-03-12T02:00:18.956Z,45.20
2019-03-12T02:05:12.633Z,47.00
2019-03-12T02:10:03.999Z,49.60
2019-03-12T02:14:55.426Z,47.30
2019-03-12T02:19:46.788Z,48.60
2019-03-12T02:24:38.206Z,48.50
2019-03-12T02:29:29.594Z,49.70
2019-03-12T02:34:20.976Z,47.20
2019-03-12T02:39:12.367Z,48.20
2019-03-12T02:44:05.980Z,48.90
2019-03-12T02:48:57.380Z,48.50
2019-03-12T02:53:53.313Z,51.80
2019-03-12T02:58:44.762Z,49.90
2019-03-12T03:03:36.154Z,49.80
2019-03-12T03:08:29.829Z,61.70
2019-03-12T03:13:22.596Z,61.40
2019-03-12T03:18:14.819Z,66.10
2019-03-12T03:28:00.025Z,64.90
2019-03-12T03:32:51.357Z,62.70
2019-03-12T03:37:42.732Z,62.10
2019-03-12T03:42:34.044Z,62.00
2019-03-12T03:47:25.457Z,65.00
2019-03-12T03:52:16.811Z,69.60
2019-03-12T03:57:08.232Z,69.10
2019-03-12T04:02:01.831Z,71.90
2019-03-12T04:06:53.236Z,69.20
2019-03-12T04:16:38.397Z,71.10
2019-03-12T04:21:29.720Z,73.70
2019-03-12T04:26:21.072Z,74.70
2019-03-12T04:31:12.481Z,77.50
2019-03-12T04:40:57.484Z,74.80
2019-03-12T04:45:48.843Z,73.70
2019-03-12T04:50:40.291Z,76.40
2019-03-12T04:55:33.873Z,77.80
2019-03-12T05:00:25.259Z,78.60
2019-03-12T05:05:16.704Z,77.90
2019-03-12T05:10:08.123Z,75.80
2019-03-12T05:14:59.456Z,74.70
2019-03-12T05:19:50.864Z,74.10
2019-03-12T05:24:42.419Z,74.10
2019-03-12T05:29:36.034Z,74.20
2019-03-12T05:34:27.517Z,75.30
2019-03-12T05:39:21.149Z,75.10
2019-03-12T05:44:12.624Z,74.00
2019-03-12T05:49:04.062Z,73.30
2019-03-12T05:53:55.427Z,73.20
2019-03-12T05:58:46.880Z,74.00
2019-03-12T06:03:38.267Z,74.60
2019-03-12T06:08:29.652Z,74.10
2019-03-12T06:13:21.039Z,74.20
2019-03-12T06:18:12.476Z,73.50
2019-03-12T06:23:04.014Z,72.50
2019-03-12T06:27:57.560Z,71.50
2019-03-12T06:32:49.031Z,71.40
2019-03-12T06:37:40.374Z,69.60
2019-03-12T06:42:31.759Z,69.40
2019-03-12T06:47:23.186Z,67.60
2019-03-12T06:52:14.610Z,68.30
2019-03-12T06:57:05.998Z,66.80
2019-03-12T07:01:57.422Z,67.00
2019-03-12T07:06:51.085Z,63.30
2019-03-12T07:11:42.529Z,60.80
2019-03-12T07:16:33.944Z,56.90
2019-03-12T07:21:25.385Z,56.70
2019-03-12T07:26:18.886Z,54.40
2019-03-12T07:31:10.719Z,55.80
2019-03-12T07:36:04.195Z,54.70
2019-03-12T07:40:55.638Z,51.80
2019-03-12T07:45:47.088Z,50.30
2019-03-12T07:50:38.510Z,48.90
2019-03-12T07:55:30.464Z,49.40
2019-03-12T08:00:21.265Z,47.60
2019-03-12T08:05:12.707Z,45.00
2019-03-12T08:10:04.054Z,42.90
2019-03-12T08:14:55.515Z,40.30
2019-03-12T08:19:46.875Z,38.20
2019-03-12T08:24:38.342Z,35.20
2019-03-12T08:29:29.735Z,34.00
2019-03-12T08:34:21.076Z,31.60
2019-03-12T08:39:12.475Z,31.00
2019-03-12T08:44:03.845Z,29.20
2019-03-12T08:48:55.251Z,29.70
2019-03-12T08:53:46.615Z,26.60
2019-03-12T08:58:38.023Z,25.80
2019-03-12T09:03:29.466Z,24.60
2019-03-12T09:08:20.893Z,25.10
2019-03-12T09:13:12.293Z,24.50
2019-03-12T09:18:03.607Z,25.40
2019-03-12T09:22:55.008Z,25.30
2019-03-12T09:27:46.444Z,25.30
2019-03-12T09:32:37.782Z,24.80
2019-03-12T09:37:29.182Z,24.80
2019-03-12T09:42:20.608Z,23.20
2019-03-12T09:47:12.024Z,23.50
2019-03-12T09:52:03.367Z,25.00
2019-03-12T09:56:54.812Z,24.10
2019-03-12T10:01:46.186Z,22.70
2019-03-12T10:06:37.564Z,23.10
2019-03-12T10:11:28.955Z,23.60
2019-03-12T10:16:20.345Z,21.00
2019-03-12T10:21:11.758Z,21.60
2019-03-12T10:26:03.127Z,21.50
2019-03-12T10:30:54.550Z,20.30
2019-03-12T10:35:45.942Z,20.50
2019-03-12T10:40:37.377Z,18.90
2019-03-12T10:45:30.933Z,18.50
2019-03-12T10:50:22.397Z,18.50
2019-03-12T10:55:14.542Z,18.10
2019-03-12T11:04:58.808Z,18.10
2019-03-12T11:09:50.261Z,19.30
2019-03-12T11:14:41.525Z,18.00
2019-03-12T11:19:32.985Z,18.80
2019-03-12T11:24:24.327Z,16.90
2019-03-12T11:29:15.766Z,17.40
2019-03-12T11:34:07.141Z,14.20
2019-03-12T11:39:00.728Z,14.00
2019-03-12T11:43:52.136Z,14.00
2019-03-12T11:48:43.536Z,11.90
2019-03-12T11:53:34.982Z,14.50
2019-03-12T11:58:26.311Z,11.90
2019-03-12T12:03:17.665Z,10.70
2019-03-12T12:08:09.061Z,9.00
2019-03-12T12:13:00.489Z,9.40
2019-03-12T12:17:51.858Z,7.20
2019-03-12T12:22:43.215Z,6.70
2019-03-12T12:27:34.603Z,7.60
2019-03-12T12:32:26.048Z,7.00
2019-03-12T12:37:19.659Z,6.30
2019-03-12T12:42:11.135Z,5.80
2019-03-12T12:47:04.711Z,6.30
2019-03-12T12:51:58.336Z,5.90
2019-03-12T12:56:49.791Z,5.90
2019-03-12T13:06:34.889Z,6.30
2019-03-12T13:11:26.227Z,6.50
2019-03-12T13:16:26.186Z,8.20
2019-03-12T13:21:11.155Z,6.10
2019-03-12T13:26:02.572Z,7.70
2019-03-12T13:30:54.025Z,4.90
2019-03-12T13:35:45.333Z,5.40
2019-03-12T13:40:36.751Z,5.10
2019-03-12T13:45:28.996Z,5.10
2019-03-12T13:55:13.308Z,6.30
2019-03-12T14:00:06.764Z,7.90
2019-03-12T14:04:58.172Z,7.20
2019-03-12T14:09:49.519Z,6.40
2019-03-12T14:14:40.944Z,8.60
2019-03-12T14:19:34.511Z,6.30
2019-03-12T14:24:25.957Z,6.80
2019-03-12T14:29:17.335Z,7.30
2019-03-12T14:34:08.711Z,6.90
2019-03-12T14:39:00.066Z,6.40
2019-03-12T14:43:51.544Z,6.20
2019-03-12T14:48:42.877Z,6.30
2019-03-12T14:53:34.267Z,5.90
2019-03-12T14:58:25.659Z,5.90
2019-03-12T15:03:17.118Z,5.60
2019-03-12T15:08:08.358Z,7.90
2019-03-12T15:12:59.764Z,7.20
2019-03-12T15:17:51.154Z,6.30
2019-03-12T15:22:54.720Z,6.70
2019-03-12T15:27:46.201Z,7.40
2019-03-12T15:32:37.614Z,6.70
2019-03-12T15:37:28.986Z,8.00
2019-03-12T15:42:20.445Z,8.20
2019-03-12T15:47:11.704Z,7.30
2019-03-12T15:52:03.129Z,7.30
2019-03-12T15:56:56.774Z,8.30
2019-03-12T16:01:48.187Z,8.40
2019-03-12T16:06:41.761Z,6.90
2019-03-12T16:11:33.231Z,8.10
2019-03-12T16:16:24.509Z,7.70
2019-03-12T16:26:11.821Z,8.20
2019-03-12T16:31:05.401Z,8.70
2019-03-12T16:35:59.035Z,8.70
2019-03-12T16:40:52.679Z,9.60
2019-03-12T16:45:46.397Z,9.50
2019-03-12T16:50:37.911Z,9.10
2019-03-12T16:55:31.472Z,10.10
2019-03-12T17:00:22.906Z,9.30
2019-03-12T17:05:16.551Z,9.70
2019-03-12T17:10:10.322Z,10.10
2019-03-12T17:15:01.691Z,10.20
2019-03-12T17:19:53.086Z,10.80
2019-03-12T17:24:46.630Z,10.40
2019-03-12T17:29:40.300Z,11.10
2019-03-12T17:34:36.745Z,11.30
2019-03-12T17:39:27.609Z,11.00
2019-03-12T17:44:21.299Z,11.30
2019-03-12T17:49:13.287Z,11.30
2019-03-12T17:54:04.098Z,11.30
2019-03-12T17:58:55.484Z,11.30
2019-03-12T18:03:46.926Z,11.40
2019-03-12T18:08:38.330Z,11.20
2019-03-12T18:13:29.611Z,11.40
2019-03-12T18:18:23.194Z,11.00
2019-03-12T18:23:16.835Z,11.10
2019-03-12T18:28:08.322Z,11.10
2019-03-12T18:32:59.667Z,10.90
2019-03-12T18:37:53.319Z,10.70
2019-03-12T18:42:44.759Z,10.80
2019-03-12T18:47:36.165Z,11.00
2019-03-12T18:52:27.474Z,10.70
2019-03-12T19:02:12.708Z,10.60
2019-03-12T19:07:04.038Z,10.90
2019-03-12T19:11:55.638Z,11.00
2019-03-12T19:16:46.783Z,11.40
2019-03-12T19:26:31.719Z,10.90
2019-03-12T19:31:27.621Z,11.50
2019-03-12T19:36:19.148Z,11.20
2019-03-12T19:41:10.531Z,11.10
2019-03-12T19:46:01.932Z,11.50
2019-03-12T19:50:53.302Z,11.60
2019-03-12T19:55:44.746Z,11.40
2019-03-12T20:00:37.059Z,11.90
2019-03-12T20:05:29.632Z,11.70
2019-03-12T20:10:21.131Z,11.40
2019-03-12T20:15:12.541Z,11.50
2019-03-12T20:20:03.810Z,11.70
2019-03-12T20:24:55.316Z,11.80
2019-03-12T20:29:47.044Z,11.90
2019-03-12T20:34:37.916Z,12.10
2019-03-12T20:39:29.381Z,12.00
2019-03-12T20:44:25.279Z,12.40
2019-03-12T20:49:25.760Z,12.40
2019-03-12T20:54:17.219Z,12.50
2019-03-12T20:59:13.103Z,12.60
2019-03-12T21:04:04.561Z,12.70
2019-03-12T21:08:55.927Z,12.20
2019-03-12T21:13:51.755Z,12.70
2019-03-12T21:18:45.464Z,12.30
2019-03-12T21:23:36.898Z,12.20
2019-03-12T21:28:28.284Z,12.40
2019-03-12T21:33:21.906Z,12.40
2019-03-12T21:38:13.370Z,12.50
2019-03-12T21:43:04.870Z,13.00
2019-03-12T21:47:56.312Z,12.70
2019-03-12T21:57:43.677Z,13.10
2019-03-12T22:02:37.341Z,13.20
2019-03-12T22:07:30.985Z,13.10
2019-03-12T22:12:22.421Z,13.30
2019-03-12T22:17:13.804Z,13.40
2019-03-12T22:22:07.575Z,13.20
2019-03-12T22:26:58.940Z,12.90
2019-03-12T22:31:52.602Z,12.80
2019-03-12T22:36:46.229Z,12.50
2019-03-12T22:41:37.651Z,12.20
2019-03-12T22:46:28.988Z,12.10
2019-03-12T22:51:20.642Z,12.10
2019-03-12T22:56:11.785Z,12.20
2019-03-12T23:01:03.203Z,12.60
2019-03-12T23:05:54.611Z,13.50
2019-03-12T23:10:45.944Z,13.20
2019-03-12T23:15:37.561Z,14.60
2019-03-12T23:20:28.751Z,17.90
2019-03-12T23:25:20.140Z,19.90
2019-03-12T23:30:16.505Z,20.90
2019-03-12T23:35:05.199Z,20.50
2019-03-12T23:39:58.830Z,20.90
2019-03-12T23:44:50.229Z,20.90
2019-03-12T23:49:41.656Z,24.40
2019-03-12T23:54:33.028Z,27.10
2019-03-12T23:59:24.448Z,29.00
